createdAt,value
2022-11-30T00:02:30.438Z,13.27
2022-11-30T00:05:23.141Z,13.40
2022-11-30T00:08:09.938Z,14.15
2022-11-30T00:10:56.678Z,14.88
2022-11-30T00:13:43.673Z,14.40
2022-11-30T00:16:30.490Z,13.70
2022-11-30T00:19:17.398Z,13.77
2022-11-30T00:22:04.153Z,13.50
2022-11-30T00:24:50.962Z,14.60
2022-11-30T00:27:37.796Z,13.90
2022-11-30T00:30:24.671Z,12.75
2022-11-30T00:33:13.095Z,13.93
2022-11-30T00:36:01.999Z,13.97
2022-11-30T00:38:49.646Z,13.65
2022-11-30T00:41:36.393Z,13.40
2022-11-30T00:44:23.188Z,13.73
2022-11-30T00:47:10.032Z,12.60
2022-11-30T00:49:56.959Z,13.35
2022-11-30T00:52:43.766Z,13.65
2022-11-30T00:55:31.911Z,13.43
2022-11-30T00:58:18.718Z,14.07
2022-11-30T01:01:05.939Z,12.98
2022-11-30T01:03:52.719Z,13.80
2022-11-30T01:06:39.592Z,13.82
2022-11-30T01:09:26.404Z,13.82
2022-11-30T01:12:13.227Z,15.00
2022-11-30T01:15:00.037Z,12.88
2022-11-30T01:17:46.877Z,13.60
2022-11-30T01:20:37.052Z,14.20
2022-11-30T01:23:23.923Z,14.95
2022-11-30T01:26:10.820Z,15.23
2022-11-30T01:28:57.606Z,14.93
2022-11-30T01:31:44.374Z,16.20
2022-11-30T01:34:34.487Z,14.68
2022-11-30T01:37:23.628Z,14.65
2022-11-30T01:40:11.496Z,13.98
2022-11-30T01:42:58.261Z,15.20
2022-11-30T01:45:45.329Z,15.00
2022-11-30T01:48:32.193Z,16.73
2022-11-30T01:51:19.162Z,17.25
2022-11-30T01:54:09.769Z,15.98
2022-11-30T01:57:11.879Z,16.52
2022-11-30T02:00:02.809Z,15.88
2022-11-30T02:03:01.984Z,15.80
2022-11-30T02:08:37.446Z,15.57
2022-11-30T02:11:26.563Z,18.52
2022-11-30T02:14:26.864Z,16.42
2022-11-30T02:17:29.087Z,17.70
2022-11-30T02:20:34.476Z,15.63
2022-11-30T02:24:09.333Z,17.88
2022-11-30T02:27:20.921Z,17.65
2022-11-30T02:30:21.918Z,18.25
2022-11-30T02:33:26.436Z,18.50
2022-11-30T02:36:13.286Z,18.40
2022-11-30T02:39:00.134Z,18.05
2022-11-30T02:41:46.893Z,16.90
2022-11-30T02:44:33.746Z,18.35
2022-11-30T02:47:31.554Z,16.88
2022-11-30T02:50:24.586Z,19.45
2022-11-30T02:53:13.325Z,19.35
2022-11-30T02:56:00.266Z,18.58
2022-11-30T02:58:47.127Z,18.95
2022-11-30T03:01:37.008Z,16.60
2022-11-30T03:04:26.547Z,18.10
2022-11-30T03:07:13.343Z,18.33
2022-11-30T03:10:00.312Z,19.42
2022-11-30T03:12:47.160Z,18.55
2022-11-30T03:15:33.991Z,17.17
2022-11-30T03:18:20.747Z,18.40
2022-11-30T03:21:11.999Z,17.13
2022-11-30T03:23:58.763Z,17.38
2022-11-30T03:26:45.725Z,20.10
2022-11-30T03:29:32.568Z,17.30
2022-11-30T03:32:19.471Z,18.67
2022-11-30T03:35:06.519Z,18.05
2022-11-30T03:37:55.571Z,18.10
2022-11-30T03:40:42.373Z,19.95
2022-11-30T03:43:29.349Z,20.05
2022-11-30T03:46:16.234Z,19.50
2022-11-30T03:49:03.207Z,20.92
2022-11-30T03:51:49.979Z,21.67
2022-11-30T03:54:36.749Z,21.42
2022-11-30T03:57:23.474Z,21.17
2022-11-30T04:00:10.927Z,20.85
2022-11-30T04:02:57.774Z,19.27
2022-11-30T04:05:44.584Z,22.13
2022-11-30T04:08:31.552Z,19.67
2022-11-30T04:11:20.819Z,23.38
2022-11-30T04:16:54.402Z,24.27
2022-11-30T04:19:41.166Z,23.50
2022-11-30T04:22:29.107Z,22.25
2022-11-30T04:25:15.971Z,24.65
2022-11-30T04:28:02.760Z,27.20
2022-11-30T04:30:49.616Z,23.15
2022-11-30T04:33:36.483Z,23.27
2022-11-30T04:36:25.275Z,28.67
2022-11-30T04:39:12.089Z,26.60
2022-11-30T04:41:59.779Z,24.83
2022-11-30T04:44:46.860Z,27.17
2022-11-30T04:47:33.758Z,26.38
2022-11-30T04:50:20.519Z,25.80
2022-11-30T04:53:07.844Z,28.55
2022-11-30T04:55:57.497Z,29.23
2022-11-30T04:58:44.241Z,26.55
2022-11-30T05:01:31.100Z,24.92
2022-11-30T05:04:17.926Z,24.10
2022-11-30T05:07:04.779Z,26.55
2022-11-30T05:09:51.629Z,29.02
2022-11-30T05:12:38.476Z,26.05
2022-11-30T05:15:25.669Z,28.48
2022-11-30T05:18:12.642Z,25.85
2022-11-30T05:20:59.596Z,25.58
2022-11-30T05:23:47.932Z,27.08
2022-11-30T05:26:35.711Z,28.27
2022-11-30T05:29:22.449Z,26.58
2022-11-30T05:32:09.214Z,24.48
2022-11-30T05:34:56.081Z,26.27
2022-11-30T05:37:42.971Z,24.75
2022-11-30T05:40:32.339Z,22.98
2022-11-30T05:43:19.146Z,26.40
2022-11-30T05:46:07.985Z,26.98
2022-11-30T05:48:54.764Z,24.52
2022-11-30T05:51:41.713Z,25.25
2022-11-30T05:54:28.467Z,27.33
2022-11-30T05:57:15.226Z,28.17
2022-11-30T06:00:02.344Z,24.17
2022-11-30T06:02:49.299Z,26.48
2022-11-30T06:05:36.556Z,26.17
2022-11-30T06:08:23.967Z,25.33
2022-11-30T06:11:10.802Z,23.92
2022-11-30T06:13:57.626Z,23.35
2022-11-30T06:16:44.871Z,23.92
2022-11-30T06:19:31.817Z,23.20
2022-11-30T06:22:18.575Z,26.30
2022-11-30T06:25:05.633Z,24.02
2022-11-30T06:27:52.573Z,23.65
2022-11-30T06:30:39.388Z,24.38
2022-11-30T06:33:26.155Z,23.75
2022-11-30T06:36:12.948Z,25.13
2022-11-30T06:38:59.724Z,23.35
2022-11-30T06:41:48.921Z,26.27
2022-11-30T06:44:39.807Z,26.10
2022-11-30T06:47:27.555Z,26.63
2022-11-30T06:50:15.111Z,26.30
2022-11-30T06:53:01.928Z,26.13
2022-11-30T06:55:48.694Z,25.35
2022-11-30T06:58:35.772Z,27.00
2022-11-30T07:01:22.580Z,28.73
2022-11-30T07:04:09.436Z,25.33
2022-11-30T07:06:56.542Z,25.90
2022-11-30T07:09:43.328Z,22.88
2022-11-30T07:12:30.206Z,25.27
2022-11-30T07:15:25.664Z,24.42
2022-11-30T07:18:12.627Z,26.23
2022-11-30T07:21:01.050Z,26.50
2022-11-30T07:24:06.470Z,24.92
2022-11-30T07:26:53.408Z,23.45
2022-11-30T07:29:40.188Z,24.13
2022-11-30T07:32:27.005Z,23.88
2022-11-30T07:35:15.434Z,23.70
2022-11-30T07:38:06.695Z,25.77
2022-11-30T07:40:57.709Z,23.77
2022-11-30T07:43:44.834Z,25.02
2022-11-30T07:46:33.457Z,24.17
2022-11-30T07:49:30.256Z,26.42
2022-11-30T07:52:23.376Z,22.92
2022-11-30T07:55:10.281Z,26.85
2022-11-30T07:57:57.142Z,27.25
2022-11-30T08:00:46.960Z,26.33
2022-11-30T08:03:37.004Z,25.63
2022-11-30T08:06:29.408Z,24.83
2022-11-30T08:09:20.479Z,24.73
2022-11-30T08:12:07.987Z,22.35
2022-11-30T08:15:19.264Z,25.60
2022-11-30T08:18:05.535Z,24.92
2022-11-30T08:21:00.038Z,25.48
2022-11-30T08:23:52.093Z,26.88
2022-11-30T08:26:39.060Z,24.42
2022-11-30T08:29:35.621Z,24.73
2022-11-30T08:32:22.443Z,22.85
2022-11-30T08:35:09.394Z,23.35
2022-11-30T08:37:56.372Z,23.77
2022-11-30T08:40:46.503Z,23.92
2022-11-30T08:43:33.618Z,24.00
2022-11-30T08:49:31.720Z,22.15
2022-11-30T08:52:19.157Z,25.63
2022-11-30T08:55:06.809Z,24.33
2022-11-30T08:57:53.948Z,22.90
2022-11-30T09:00:43.312Z,25.30
2022-11-30T09:03:30.336Z,22.98
2022-11-30T09:06:19.614Z,23.00
2022-11-30T09:11:53.253Z,22.92
2022-11-30T09:14:40.296Z,22.42
2022-11-30T09:17:27.122Z,23.75
2022-11-30T09:20:14.096Z,24.60
2022-11-30T09:23:00.899Z,25.08
2022-11-30T09:25:55.274Z,25.42
2022-11-30T09:28:42.601Z,24.35
2022-11-30T09:31:29.656Z,25.88
2022-11-30T09:34:16.429Z,23.00
2022-11-30T09:37:06.199Z,23.15
2022-11-30T09:39:53.103Z,22.40
2022-11-30T09:43:02.761Z,23.15
2022-11-30T09:45:54.993Z,23.77
2022-11-30T09:49:04.575Z,23.92
2022-11-30T09:51:57.088Z,24.02
2022-11-30T09:54:45.484Z,26.15
2022-11-30T09:57:44.184Z,29.77
2022-11-30T10:00:31.078Z,27.13
2022-11-30T10:03:18.803Z,26.98
2022-11-30T10:06:12.581Z,29.02
2022-11-30T10:09:15.974Z,24.75
2022-11-30T10:12:17.067Z,29.08
2022-11-30T10:15:22.912Z,27.17
2022-11-30T10:18:30.983Z,28.58
2022-11-30T10:21:57.197Z,27.75
2022-11-30T10:25:11.627Z,26.50
2022-11-30T10:28:18.048Z,28.92
2022-11-30T10:31:13.482Z,27.15
2022-11-30T10:34:21.123Z,28.00
2022-11-30T10:37:16.990Z,28.02
2022-11-30T10:40:09.503Z,26.00
2022-11-30T10:43:24.646Z,27.35
2022-11-30T10:46:22.060Z,24.42
2022-11-30T10:49:17.695Z,24.38
2022-11-30T10:52:07.467Z,23.85
2022-11-30T10:55:03.686Z,25.52
2022-11-30T10:57:58.080Z,23.33
2022-11-30T11:00:56.462Z,26.65
2022-11-30T11:03:43.440Z,24.92
2022-11-30T11:06:30.392Z,23.23
2022-11-30T11:09:47.193Z,25.33
2022-11-30T11:12:34.485Z,25.42
2022-11-30T11:15:33.508Z,27.02
2022-11-30T11:18:27.404Z,25.00
2022-11-30T11:21:19.074Z,25.33
2022-11-30T11:24:09.463Z,22.38
2022-11-30T11:26:57.046Z,25.55
2022-11-30T11:29:43.984Z,24.10
2022-11-30T11:32:34.426Z,24.38
2022-11-30T11:35:39.767Z,24.02
2022-11-30T11:38:39.338Z,25.02
2022-11-30T11:41:29.615Z,22.15
2022-11-30T11:44:22.702Z,23.52
2022-11-30T11:47:24.261Z,23.50
2022-11-30T11:56:42.518Z,22.45
2022-11-30T11:59:55.265Z,23.30
2022-11-30T12:03:04.885Z,22.88
2022-11-30T12:05:54.042Z,23.65
2022-11-30T12:08:54.533Z,20.15
2022-11-30T12:11:46.915Z,21.10
2022-11-30T12:14:35.218Z,22.35
2022-11-30T12:17:43.003Z,21.77
2022-11-30T12:20:43.509Z,20.40
2022-11-30T12:24:05.269Z,20.23
2022-11-30T12:27:24.953Z,20.02
2022-11-30T12:30:27.514Z,22.40
2022-11-30T12:33:33.278Z,20.85
2022-11-30T12:36:35.701Z,18.02
2022-11-30T12:39:53.624Z,20.52
2022-11-30T12:42:50.257Z,22.27
2022-11-30T12:45:43.427Z,20.20
2022-11-30T12:48:39.739Z,20.77
2022-11-30T12:54:49.477Z,18.92
2022-11-30T12:57:37.795Z,18.85
2022-11-30T13:00:25.369Z,18.83
2022-11-30T13:03:24.376Z,21.08
2022-11-30T13:06:18.814Z,17.45
2022-11-30T13:09:13.786Z,19.00
2022-11-30T13:12:11.216Z,18.65
2022-11-30T13:14:59.990Z,20.48
2022-11-30T13:17:47.646Z,19.48
2022-11-30T13:20:54.811Z,19.35
2022-11-30T13:23:59.983Z,18.73
2022-11-30T13:27:10.975Z,19.30
2022-11-30T13:30:12.927Z,18.92
2022-11-30T13:33:37.585Z,18.45
2022-11-30T13:36:27.649Z,18.77
2022-11-30T13:39:14.426Z,23.65
2022-11-30T13:42:01.141Z,18.38
2022-11-30T13:44:48.212Z,18.92
2022-11-30T13:47:35.432Z,19.60
2022-11-30T13:50:31.315Z,20.73
2022-11-30T13:53:24.596Z,19.75
2022-11-30T13:56:17.440Z,19.77
2022-11-30T13:59:25.534Z,18.98
2022-11-30T14:02:31.387Z,20.13
2022-11-30T14:05:21.426Z,19.02
2022-11-30T14:08:26.459Z,19.90
2022-11-30T14:11:20.868Z,19.80
2022-11-30T14:14:46.150Z,19.90
2022-11-30T14:17:34.199Z,16.95
2022-11-30T14:20:24.215Z,20.60
2022-11-30T14:23:13.914Z,22.90
2022-11-30T14:26:10.802Z,22.73
2022-11-30T14:29:09.223Z,22.23
2022-11-30T14:31:59.857Z,23.58
2022-11-30T14:35:02.095Z,23.63
2022-11-30T14:37:57.815Z,25.83
2022-11-30T14:40:52.839Z,25.67
2022-11-30T14:43:39.601Z,24.38
2022-11-30T14:46:29.258Z,24.25
2022-11-30T14:49:22.719Z,24.90
2022-11-30T14:52:13.722Z,22.67
2022-11-30T14:58:32.983Z,21.58
2022-11-30T15:01:34.455Z,23.13
2022-11-30T15:04:23.797Z,19.80
2022-11-30T15:07:23.225Z,21.73
2022-11-30T15:10:26.506Z,21.80
2022-11-30T15:13:21.599Z,19.75
2022-11-30T15:16:17.038Z,23.17
2022-11-30T15:19:36.963Z,21.05
2022-11-30T15:22:44.634Z,23.05
2022-11-30T15:25:38.128Z,20.02
2022-11-30T15:28:41.435Z,21.48
2022-11-30T15:31:56.657Z,21.45
2022-11-30T15:34:56.533Z,21.00
2022-11-30T15:38:05.494Z,19.55
2022-11-30T15:44:28.924Z,21.83
2022-11-30T15:47:41.529Z,21.15
2022-11-30T15:53:54.145Z,20.83
2022-11-30T15:56:58.368Z,20.10
2022-11-30T16:00:22.954Z,21.88
2022-11-30T16:03:33.434Z,19.55
2022-11-30T16:06:23.569Z,20.23
2022-11-30T16:09:37.429Z,23.42
2022-11-30T16:19:20.161Z,21.38
2022-11-30T16:22:33.872Z,21.75
2022-11-30T16:26:07.949Z,20.88
2022-11-30T16:29:30.186Z,21.38
2022-11-30T16:33:05.581Z,21.42
2022-11-30T16:36:48.946Z,22.38
2022-11-30T16:47:27.057Z,22.13
2022-11-30T16:50:55.108Z,21.92
2022-11-30T16:54:09.694Z,24.25
2022-11-30T16:57:14.569Z,23.63
2022-11-30T17:00:55.441Z,20.95
2022-11-30T17:04:08.981Z,22.05
2022-11-30T17:07:07.524Z,22.90
2022-11-30T17:10:12.455Z,22.45
2022-11-30T17:13:22.090Z,22.67
2022-11-30T17:16:40.098Z,23.65
2022-11-30T17:19:34.723Z,20.58
2022-11-30T17:22:42.658Z,22.83
2022-11-30T17:25:53.672Z,24.63
2022-11-30T17:28:47.450Z,22.35
2022-11-30T17:31:49.367Z,23.55
2022-11-30T17:34:50.094Z,22.52
2022-11-30T17:37:49.468Z,21.08
2022-11-30T17:40:55.799Z,21.35
2022-11-30T17:44:03.855Z,25.00
2022-11-30T17:46:57.565Z,22.35
2022-11-30T17:49:51.453Z,21.92
2022-11-30T17:52:47.388Z,21.60
2022-11-30T17:55:55.884Z,20.88
2022-11-30T17:59:33.653Z,20.58
2022-11-30T18:02:08.422Z,21.98
2022-11-30T18:05:25.353Z,19.95
2022-11-30T18:08:47.515Z,19.77
2022-11-30T18:11:42.106Z,22.80
2022-11-30T18:14:44.234Z,21.50
2022-11-30T18:17:46.129Z,22.65
2022-11-30T18:20:42.107Z,21.42
2022-11-30T18:23:32.090Z,22.80
2022-11-30T18:26:25.624Z,22.40
2022-11-30T18:29:16.960Z,22.95
2022-11-30T18:32:07.223Z,22.33
2022-11-30T18:34:56.439Z,22.35
2022-11-30T18:38:07.162Z,22.95
2022-11-30T18:41:23.428Z,22.10
2022-11-30T18:44:22.433Z,20.40
2022-11-30T18:47:43.758Z,21.80
2022-11-30T19:01:57.644Z,20.30
2022-11-30T19:05:03.561Z,21.45
2022-11-30T19:07:51.646Z,22.02
2022-11-30T19:11:40.081Z,24.25
2022-11-30T19:15:42.739Z,21.33
2022-11-30T19:18:47.091Z,23.90
2022-11-30T19:24:37.515Z,22.98
2022-11-30T19:32:37.163Z,23.13
2022-11-30T19:40:11.825Z,21.38
2022-11-30T19:43:24.189Z,22.00
2022-11-30T19:51:35.205Z,20.17
2022-11-30T19:55:02.359Z,22.85
2022-11-30T19:58:20.859Z,21.30
2022-11-30T20:02:01.142Z,23.67
2022-11-30T20:05:02.102Z,22.00
2022-11-30T20:15:00.212Z,22.25
2022-11-30T20:18:20.356Z,22.73
2022-11-30T20:21:18.967Z,24.17
2022-11-30T20:24:20.440Z,21.63
2022-11-30T20:27:24.858Z,23.17
2022-11-30T20:30:31.698Z,22.70
2022-11-30T20:33:26.849Z,22.65
2022-11-30T20:37:00.720Z,24.67
2022-11-30T20:39:51.036Z,22.60
2022-11-30T20:42:40.722Z,23.15
2022-11-30T20:45:28.170Z,24.10
2022-11-30T20:48:24.787Z,24.83
2022-11-30T20:51:31.854Z,22.63
2022-11-30T20:54:19.835Z,22.70
2022-11-30T20:57:12.050Z,22.60
2022-11-30T21:00:13.050Z,23.02
2022-11-30T21:03:11.860Z,21.88
2022-11-30T21:06:02.051Z,21.80
2022-11-30T21:09:01.161Z,22.30
2022-11-30T21:11:52.080Z,24.23
2022-11-30T21:14:54.686Z,24.70
2022-11-30T21:18:04.710Z,24.27
2022-11-30T21:20:53.027Z,24.45
2022-11-30T21:23:47.761Z,21.23
2022-11-30T21:26:46.719Z,23.85
2022-11-30T21:29:54.939Z,22.60
2022-11-30T21:32:48.916Z,22.10
2022-11-30T21:36:01.903Z,24.23
2022-11-30T21:39:01.010Z,23.08
2022-11-30T21:41:56.886Z,22.52
2022-11-30T21:44:51.023Z,23.75
2022-11-30T21:47:50.484Z,22.75
2022-11-30T21:50:43.573Z,20.60
2022-11-30T21:53:49.620Z,23.00
2022-11-30T21:56:53.717Z,21.30
2022-11-30T22:02:48.713Z,21.08
2022-11-30T22:05:48.764Z,20.45
2022-11-30T22:08:47.950Z,20.77
2022-11-30T22:12:00.084Z,22.10
2022-11-30T22:15:02.080Z,24.35
2022-11-30T22:18:16.441Z,22.25
2022-11-30T22:23:51.953Z,21.33
2022-11-30T22:26:53.708Z,22.80
2022-11-30T22:29:50.536Z,19.85
2022-11-30T22:32:54.881Z,21.27
2022-11-30T22:36:05.602Z,20.98
2022-11-30T22:39:10.282Z,21.85
2022-11-30T22:42:08.915Z,21.55
2022-11-30T22:44:55.867Z,20.05
2022-11-30T22:47:42.778Z,18.92
2022-11-30T22:50:44.849Z,21.58
2022-11-30T22:53:41.810Z,21.67
2022-11-30T23:00:06.862Z,18.80
2022-11-30T23:03:10.659Z,20.35
2022-11-30T23:06:14.758Z,20.45
2022-11-30T23:09:29.725Z,20.58
2022-11-30T23:12:51.274Z,19.92
2022-11-30T23:15:53.646Z,19.63
2022-11-30T23:18:52.134Z,20.60
2022-11-30T23:21:50.834Z,21.80
2022-11-30T23:25:49.301Z,20.88
2022-11-30T23:29:07.692Z,20.23
2022-11-30T23:32:48.123Z,19.20
2022-11-30T23:35:43.401Z,18.85
2022-11-30T23:39:11.546Z,21.58
2022-11-30T23:42:13.775Z,20.27
2022-11-30T23:45:25.673Z,20.25
2022-11-30T23:48:22.448Z,20.15
2022-11-30T23:51:26.336Z,20.75
2022-11-30T23:54:25.906Z,19.27
2022-11-30T23:57:30.700Z,20.67
